createdAt,value
2023-05-23T00:00:26.553Z,20.15
2023-05-23T00:01:26.552Z,20.22
2023-05-23T00:02:26.629Z,20.28
2023-05-23T00:03:26.715Z,20.29
2023-05-23T00:04:26.691Z,20.27
2023-05-23T00:05:26.505Z,20.29
2023-05-23T00:06:26.590Z,20.34
2023-05-23T00:07:26.576Z,20.33
2023-05-23T00:08:26.513Z,20.36
2023-05-23T00:09:26.588Z,20.33
2023-05-23T00:10:26.536Z,20.30
2023-05-23T00:11:26.588Z,20.28
2023-05-23T00:13:26.654Z,20.30
2023-05-23T00:14:26.600Z,20.34
2023-05-23T00:15:26.553Z,20.38
2023-05-23T00:16:26.619Z,20.41
2023-05-23T00:17:26.641Z,20.43
2023-05-23T00:18:26.544Z,20.45
2023-05-23T00:19:26.654Z,20.48
2023-05-23T00:20:26.613Z,20.50
2023-05-23T00:21:26.591Z,20.52
2023-05-23T00:23:26.574Z,20.50
2023-05-23T00:24:26.591Z,20.49
2023-05-23T00:26:26.600Z,20.47
2023-05-23T00:27:26.640Z,20.42
2023-05-23T00:28:26.617Z,20.27
2023-05-23T00:29:26.626Z,20.23
2023-05-23T00:30:26.651Z,20.21
2023-05-23T00:31:26.659Z,20.20
2023-05-23T00:32:26.641Z,20.18
2023-05-23T00:33:26.624Z,20.17
2023-05-23T00:34:26.652Z,20.19
2023-05-23T00:35:26.601Z,20.22
2023-05-23T00:36:26.619Z,20.20
2023-05-23T00:37:26.629Z,20.21
2023-05-23T00:38:26.670Z,20.22
2023-05-23T00:39:26.621Z,20.24
2023-05-23T00:40:26.657Z,20.23
2023-05-23T00:41:26.653Z,20.22
2023-05-23T00:42:26.677Z,20.21
2023-05-23T00:43:26.672Z,20.19
2023-05-23T00:45:26.663Z,20.18
2023-05-23T00:46:26.734Z,20.16
2023-05-23T00:48:26.712Z,20.14
2023-05-23T00:49:26.651Z,20.11
2023-05-23T00:50:26.686Z,20.09
2023-05-23T00:51:26.674Z,20.06
2023-05-23T00:52:26.641Z,20.04
2023-05-23T00:53:26.696Z,20.02
2023-05-23T00:54:26.663Z,20.01
2023-05-23T00:55:26.700Z,20.02
2023-05-23T00:56:26.689Z,20.00
2023-05-23T00:57:26.678Z,20.01
2023-05-23T00:58:26.736Z,19.98
2023-05-23T00:59:26.711Z,19.95
2023-05-23T01:00:26.719Z,19.93
2023-05-23T01:01:26.863Z,19.90
2023-05-23T01:02:26.774Z,19.85
2023-05-23T01:03:26.776Z,19.82
2023-05-23T01:04:27.234Z,19.79
2023-05-23T01:05:26.695Z,19.77
2023-05-23T01:06:26.722Z,19.74
2023-05-23T01:07:26.716Z,19.69
2023-05-23T01:08:26.725Z,19.66
2023-05-23T01:09:26.690Z,19.62
2023-05-23T01:10:26.715Z,19.52
2023-05-23T01:11:26.680Z,19.48
2023-05-23T01:12:26.720Z,19.47
2023-05-23T01:14:26.729Z,19.48
2023-05-23T01:15:26.709Z,19.50
2023-05-23T01:16:26.768Z,19.54
2023-05-23T01:17:26.780Z,19.58
2023-05-23T01:18:26.703Z,19.61
2023-05-23T01:19:26.905Z,19.63
2023-05-23T01:20:26.752Z,19.65
2023-05-23T01:22:26.759Z,19.59
2023-05-23T01:23:26.735Z,19.55
2023-05-23T01:24:26.751Z,19.48
2023-05-23T01:25:26.787Z,19.47
2023-05-23T01:26:26.792Z,19.46
2023-05-23T01:27:26.780Z,19.48
2023-05-23T01:28:26.756Z,19.51
2023-05-23T01:29:26.829Z,19.53
2023-05-23T01:30:26.777Z,19.54
2023-05-23T01:31:26.800Z,19.57
2023-05-23T01:32:26.822Z,19.61
2023-05-23T01:33:26.773Z,19.63
2023-05-23T01:34:26.787Z,19.65
2023-05-23T01:35:26.793Z,19.67
2023-05-23T01:36:26.773Z,19.68
2023-05-23T01:37:26.785Z,19.67
2023-05-23T01:38:26.806Z,19.69
2023-05-23T01:39:26.805Z,19.70
2023-05-23T01:40:26.791Z,19.72
2023-05-23T01:41:26.768Z,19.73
2023-05-23T01:42:26.795Z,19.71
2023-05-23T01:43:26.811Z,19.69
2023-05-23T01:44:26.791Z,19.65
2023-05-23T01:45:26.882Z,19.64
2023-05-23T01:46:26.874Z,19.62
2023-05-23T01:47:26.850Z,19.63
2023-05-23T01:49:26.820Z,19.64
2023-05-23T01:53:26.887Z,19.66
2023-05-23T01:54:26.859Z,19.68
2023-05-23T01:57:26.825Z,19.67
2023-05-23T01:59:26.894Z,19.68
2023-05-23T02:00:26.874Z,19.67
2023-05-23T02:02:26.934Z,19.61
2023-05-23T02:03:26.987Z,19.47
2023-05-23T02:04:26.874Z,19.36
2023-05-23T02:05:26.857Z,19.26
2023-05-23T02:06:26.887Z,19.21
2023-05-23T02:07:26.889Z,19.18
2023-05-23T02:08:26.852Z,19.15
2023-05-23T02:09:26.893Z,19.14
2023-05-23T02:10:26.850Z,19.17
2023-05-23T02:11:26.900Z,19.19
2023-05-23T02:12:26.910Z,19.23
2023-05-23T02:13:26.893Z,19.25
2023-05-23T02:14:26.881Z,19.28
2023-05-23T02:15:26.858Z,19.31
2023-05-23T02:16:26.946Z,19.32
2023-05-23T02:18:26.868Z,19.33
2023-05-23T02:19:26.998Z,19.34
2023-05-23T02:20:26.937Z,19.36
2023-05-23T02:21:26.895Z,19.37
2023-05-23T02:22:26.932Z,19.38
2023-05-23T02:24:26.937Z,19.39
2023-05-23T02:25:26.906Z,19.40
2023-05-23T02:26:26.909Z,19.41
2023-05-23T02:27:26.940Z,19.43
2023-05-23T02:29:26.927Z,19.41
2023-05-23T02:31:26.928Z,19.39
2023-05-23T02:32:26.993Z,19.36
2023-05-23T02:33:26.978Z,19.35
2023-05-23T02:34:26.964Z,19.34
2023-05-23T02:35:26.941Z,19.35
2023-05-23T02:37:26.941Z,19.30
2023-05-23T02:38:26.975Z,19.28
2023-05-23T02:39:26.958Z,19.26
2023-05-23T02:40:26.971Z,19.23
2023-05-23T02:41:26.936Z,19.14
2023-05-23T02:42:26.954Z,19.10
2023-05-23T02:43:26.950Z,19.07
2023-05-23T02:44:26.918Z,19.08
2023-05-23T02:45:26.962Z,19.10
2023-05-23T02:46:27.009Z,19.12
2023-05-23T02:47:26.990Z,19.15
2023-05-23T02:48:27.003Z,19.18
2023-05-23T02:49:26.962Z,19.22
2023-05-23T02:50:26.986Z,19.24
2023-05-23T02:51:27.013Z,19.27
2023-05-23T02:52:27.028Z,19.29
2023-05-23T02:53:26.994Z,19.28
2023-05-23T02:54:26.961Z,19.24
2023-05-23T02:55:27.024Z,19.21
2023-05-23T02:57:27.044Z,19.22
2023-05-23T02:58:27.020Z,19.23
2023-05-23T02:59:26.992Z,19.25
2023-05-23T03:00:27.019Z,19.26
2023-05-23T03:01:27.074Z,19.29
2023-05-23T03:02:27.088Z,19.32
2023-05-23T03:03:27.074Z,19.33
2023-05-23T03:04:27.005Z,19.35
2023-05-23T03:06:27.017Z,19.32
2023-05-23T03:07:28.884Z,19.30
2023-05-23T03:08:27.017Z,19.28
2023-05-23T03:11:27.052Z,19.29
2023-05-23T03:13:26.984Z,19.31
2023-05-23T03:16:27.084Z,19.32
2023-05-23T03:17:27.053Z,19.31
2023-05-23T03:18:27.039Z,19.30
2023-05-23T03:19:27.129Z,19.29
2023-05-23T03:20:27.020Z,19.31
2023-05-23T03:21:27.056Z,19.30
2023-05-23T03:23:27.027Z,19.28
2023-05-23T03:24:27.051Z,19.27
2023-05-23T03:25:27.078Z,19.26
2023-05-23T03:26:27.067Z,19.28
2023-05-23T03:27:27.069Z,19.30
2023-05-23T03:28:27.029Z,19.29
2023-05-23T03:29:27.079Z,19.30
2023-05-23T03:31:27.103Z,19.29
2023-05-23T03:34:27.091Z,19.30
2023-05-23T03:35:27.073Z,19.29
2023-05-23T03:38:27.099Z,19.31
2023-05-23T03:40:27.211Z,19.32
2023-05-23T03:41:27.060Z,19.31
2023-05-23T03:42:27.102Z,19.30
2023-05-23T03:44:27.106Z,19.31
2023-05-23T03:45:27.105Z,19.30
2023-05-23T03:46:27.102Z,19.31
2023-05-23T03:47:27.146Z,19.32
2023-05-23T03:48:27.105Z,19.34
2023-05-23T03:49:27.076Z,19.33
2023-05-23T03:52:27.157Z,19.36
2023-05-23T03:53:27.140Z,19.37
2023-05-23T03:54:27.109Z,19.35
2023-05-23T03:55:27.125Z,19.34
2023-05-23T03:58:27.140Z,19.35
2023-05-23T03:59:27.118Z,19.32
2023-05-23T04:00:27.150Z,19.29
2023-05-23T04:01:27.149Z,19.27
2023-05-23T04:05:27.181Z,19.26
2023-05-23T04:06:27.155Z,19.25
2023-05-23T04:07:27.123Z,19.26
2023-05-23T04:09:27.186Z,19.29
2023-05-23T04:11:27.175Z,19.26
2023-05-23T04:13:27.174Z,19.23
2023-05-23T04:14:27.179Z,19.14
2023-05-23T04:15:27.178Z,19.05
2023-05-23T04:16:27.202Z,19.00
2023-05-23T04:17:27.217Z,19.03
2023-05-23T04:18:27.196Z,19.06
2023-05-23T04:19:27.267Z,19.09
2023-05-23T04:20:27.169Z,19.11
2023-05-23T04:21:27.221Z,19.13
2023-05-23T04:22:27.193Z,19.15
2023-05-23T04:23:27.206Z,19.18
2023-05-23T04:24:27.229Z,19.22
2023-05-23T04:25:27.178Z,19.26
2023-05-23T04:26:27.228Z,19.29
2023-05-23T04:27:27.236Z,19.31
2023-05-23T04:28:27.227Z,19.30
2023-05-23T04:29:27.245Z,19.32
2023-05-23T04:30:27.206Z,19.34
2023-05-23T04:31:27.297Z,19.35
2023-05-23T04:33:27.226Z,19.38
2023-05-23T04:34:27.269Z,19.40
2023-05-23T04:35:27.268Z,19.41
2023-05-23T04:37:27.241Z,19.43
2023-05-23T04:38:27.219Z,19.45
2023-05-23T04:39:27.277Z,19.48
2023-05-23T04:40:27.288Z,19.51
2023-05-23T04:41:27.347Z,19.54
2023-05-23T04:42:27.315Z,19.55
2023-05-23T04:43:27.246Z,19.57
2023-05-23T04:45:27.321Z,19.60
2023-05-23T04:46:27.279Z,19.59
2023-05-23T04:47:27.322Z,19.58
2023-05-23T04:49:27.312Z,19.61
2023-05-23T04:50:27.273Z,19.64
2023-05-23T04:52:27.280Z,19.66
2023-05-23T04:53:27.305Z,19.68
2023-05-23T04:55:27.324Z,19.67
2023-05-23T04:56:27.297Z,19.65
2023-05-23T04:58:27.277Z,19.64
2023-05-23T04:59:27.286Z,19.62
2023-05-23T05:00:27.302Z,19.63
2023-05-23T05:02:27.484Z,19.65
2023-05-23T05:03:27.325Z,19.66
2023-05-23T05:04:27.428Z,19.67
2023-05-23T05:05:27.315Z,19.70
2023-05-23T05:06:27.340Z,19.71
2023-05-23T05:07:27.335Z,19.72
2023-05-23T05:09:27.298Z,19.74
2023-05-23T05:10:27.349Z,19.76
2023-05-23T05:12:27.358Z,19.77
2023-05-23T05:13:27.360Z,19.78
2023-05-23T05:14:27.354Z,19.79
2023-05-23T05:15:27.390Z,19.81
2023-05-23T05:16:27.423Z,19.84
2023-05-23T05:17:27.373Z,19.86
2023-05-23T05:18:27.379Z,19.88
2023-05-23T05:19:27.442Z,19.90
2023-05-23T05:20:27.382Z,19.93
2023-05-23T05:21:27.345Z,19.97
2023-05-23T05:22:27.351Z,20.00
2023-05-23T05:23:27.361Z,20.03
2023-05-23T05:24:27.354Z,20.07
2023-05-23T05:25:27.367Z,20.11
2023-05-23T05:26:27.364Z,20.14
2023-05-23T05:27:27.917Z,20.16
2023-05-23T05:28:27.376Z,20.18
2023-05-23T05:29:27.451Z,20.22
2023-05-23T05:30:27.372Z,20.25
2023-05-23T05:31:27.410Z,20.28
2023-05-23T05:32:27.399Z,20.33
2023-05-23T05:33:27.379Z,20.42
2023-05-23T05:34:27.412Z,20.48
2023-05-23T05:35:27.389Z,20.55
2023-05-23T05:36:27.426Z,20.63
2023-05-23T05:37:27.394Z,20.72
2023-05-23T05:38:27.392Z,20.79
2023-05-23T05:39:27.420Z,20.85
2023-05-23T05:40:27.452Z,20.94
2023-05-23T05:41:27.400Z,21.04
2023-05-23T05:42:27.436Z,21.09
2023-05-23T05:43:27.469Z,21.01
2023-05-23T05:44:27.409Z,21.00
2023-05-23T05:45:27.440Z,21.08
2023-05-23T05:46:27.437Z,21.15
2023-05-23T05:47:27.456Z,21.22
2023-05-23T05:48:27.462Z,21.31
2023-05-23T05:49:27.431Z,21.42
2023-05-23T05:50:27.434Z,21.52
2023-05-23T05:51:27.399Z,21.60
2023-05-23T05:52:27.441Z,21.70
2023-05-23T05:53:27.459Z,21.77
2023-05-23T05:54:27.423Z,21.82
2023-05-23T05:55:27.476Z,21.86
2023-05-23T05:56:27.408Z,21.87
2023-05-23T05:57:27.458Z,21.88
2023-05-23T05:58:27.479Z,21.91
2023-05-23T05:59:27.442Z,21.98
2023-05-23T06:00:27.456Z,22.06
2023-05-23T06:01:27.472Z,22.12
2023-05-23T06:02:27.522Z,22.18
2023-05-23T06:03:27.673Z,22.24
2023-05-23T06:04:27.492Z,22.29
2023-05-23T06:05:27.475Z,22.34
2023-05-23T06:06:27.506Z,22.39
2023-05-23T06:07:27.499Z,22.47
2023-05-23T06:08:27.503Z,22.55
2023-05-23T06:09:27.464Z,22.60
2023-05-23T06:10:27.490Z,22.66
2023-05-23T06:11:27.531Z,22.71
2023-05-23T06:12:27.456Z,22.76
2023-05-23T06:13:27.474Z,22.79
2023-05-23T06:14:27.509Z,22.82
2023-05-23T06:15:27.514Z,22.90
2023-05-23T06:16:27.584Z,23.01
2023-05-23T06:17:27.519Z,23.10
2023-05-23T06:18:27.510Z,23.20
2023-05-23T06:19:27.553Z,23.33
2023-05-23T06:20:27.496Z,23.43
2023-05-23T06:21:27.545Z,23.53
2023-05-23T06:22:27.479Z,23.62
2023-05-23T06:23:27.484Z,23.72
2023-05-23T06:24:27.521Z,23.79
2023-05-23T06:25:27.495Z,23.87
2023-05-23T06:26:27.537Z,23.93
2023-05-23T06:27:27.544Z,23.99
2023-05-23T06:28:27.504Z,24.02
2023-05-23T06:30:27.547Z,24.16
2023-05-23T06:31:27.546Z,24.23
2023-05-23T06:32:27.691Z,24.33
2023-05-23T06:33:27.556Z,24.41
2023-05-23T06:34:27.520Z,24.48
2023-05-23T06:35:27.589Z,24.55
2023-05-23T06:36:27.556Z,24.62
2023-05-23T06:37:27.592Z,24.68
2023-05-23T06:38:27.552Z,24.73
2023-05-23T06:39:27.520Z,24.78
2023-05-23T06:40:30.146Z,24.83
2023-05-23T06:41:27.541Z,24.85
2023-05-23T06:42:27.553Z,24.87
2023-05-23T06:43:27.555Z,24.85
2023-05-23T06:44:27.587Z,24.87
2023-05-23T06:45:27.574Z,24.94
2023-05-23T06:46:27.701Z,25.01
2023-05-23T06:47:27.607Z,25.09
2023-05-23T06:48:27.583Z,25.15
2023-05-23T06:49:27.603Z,25.19
2023-05-23T06:50:27.746Z,25.22
2023-05-23T06:51:27.625Z,25.23
2023-05-23T06:52:27.578Z,25.28
2023-05-23T06:53:27.600Z,25.33
2023-05-23T06:54:27.604Z,25.40
2023-05-23T06:55:27.588Z,25.48
2023-05-23T06:56:27.602Z,25.56
2023-05-23T06:57:27.629Z,25.65
2023-05-23T06:58:27.631Z,25.73
2023-05-23T06:59:27.655Z,25.81
2023-05-23T07:00:27.606Z,25.87
2023-05-23T07:01:27.685Z,25.89
2023-05-23T07:02:27.632Z,25.90
2023-05-23T07:03:27.651Z,25.93
2023-05-23T07:04:27.591Z,25.94
2023-05-23T07:05:27.649Z,25.93
2023-05-23T07:07:27.623Z,25.94
2023-05-23T07:09:27.681Z,25.93
2023-05-23T07:10:27.699Z,25.91
2023-05-23T07:11:27.639Z,25.86
2023-05-23T07:12:27.652Z,25.84
2023-05-23T07:13:27.650Z,25.78
2023-05-23T07:14:27.669Z,25.76
2023-05-23T07:15:27.726Z,25.73
2023-05-23T07:17:30.441Z,25.78
2023-05-23T07:18:27.667Z,25.87
2023-05-23T07:19:27.761Z,25.95
2023-05-23T07:20:27.692Z,26.03
2023-05-23T07:21:27.652Z,26.08
2023-05-23T07:22:27.680Z,26.07
2023-05-23T07:23:27.651Z,26.00
2023-05-23T07:24:27.630Z,25.94
2023-05-23T07:25:27.672Z,25.87
2023-05-23T07:26:27.710Z,25.80
2023-05-23T07:27:27.705Z,25.68
2023-05-23T07:28:27.692Z,25.55
2023-05-23T07:29:27.696Z,25.44
2023-05-23T07:30:27.695Z,25.35
2023-05-23T07:31:27.721Z,25.28
2023-05-23T07:32:27.778Z,25.22
2023-05-23T07:33:27.819Z,25.18
2023-05-23T07:34:27.677Z,25.15
2023-05-23T07:35:27.726Z,25.11
2023-05-23T07:36:27.714Z,25.07
2023-05-23T07:37:27.711Z,25.00
2023-05-23T07:38:27.723Z,24.91
2023-05-23T07:39:27.708Z,24.82
2023-05-23T07:40:27.726Z,24.72
2023-05-23T07:41:27.699Z,24.60
2023-05-23T07:42:27.749Z,24.48
2023-05-23T07:43:27.747Z,24.35
2023-05-23T07:44:27.702Z,24.20
2023-05-23T07:45:27.721Z,24.09
2023-05-23T07:46:27.863Z,23.96
2023-05-23T07:47:27.783Z,23.86
2023-05-23T07:48:27.708Z,23.74
2023-05-23T07:49:27.708Z,23.63
2023-05-23T07:50:27.786Z,23.55
2023-05-23T07:51:27.761Z,23.48
2023-05-23T07:52:27.742Z,23.41
2023-05-23T07:53:27.749Z,23.36
2023-05-23T07:54:30.570Z,23.29
2023-05-23T07:55:27.748Z,23.24
2023-05-23T07:56:27.796Z,23.16
2023-05-23T07:57:27.758Z,23.10
2023-05-23T07:58:27.756Z,23.02
2023-05-23T07:59:27.788Z,22.97
2023-05-23T08:00:27.848Z,22.94
2023-05-23T08:01:27.791Z,22.88
2023-05-23T08:02:27.850Z,22.81
2023-05-23T08:03:27.777Z,22.78
2023-05-23T08:04:27.790Z,22.75
2023-05-23T08:05:27.769Z,22.71
2023-05-23T08:06:27.815Z,22.67
2023-05-23T08:07:27.822Z,22.64
2023-05-23T08:08:27.827Z,22.63
2023-05-23T08:10:27.806Z,22.59
2023-05-23T08:11:27.852Z,22.52
2023-05-23T08:12:27.808Z,22.48
2023-05-23T08:13:27.753Z,22.44
2023-05-23T08:14:38.686Z,22.40
2023-05-23T08:15:27.816Z,22.31
2023-05-23T08:16:27.839Z,22.18
2023-05-23T08:17:27.969Z,22.09
2023-05-23T08:18:27.850Z,22.00
2023-05-23T08:19:27.872Z,21.93
2023-05-23T08:20:27.789Z,21.87
2023-05-23T08:21:27.843Z,21.80
2023-05-23T08:22:27.845Z,21.76
2023-05-23T08:25:27.818Z,21.78
2023-05-23T08:26:27.813Z,21.80
2023-05-23T08:27:27.866Z,21.85
2023-05-23T08:28:27.817Z,21.88
2023-05-23T08:29:27.848Z,21.91
2023-05-23T08:30:27.850Z,21.95
2023-05-23T08:31:31.373Z,22.04
2023-05-23T08:32:27.918Z,22.11
2023-05-23T08:33:27.902Z,22.13
2023-05-23T08:34:27.825Z,22.16
2023-05-23T08:35:27.918Z,22.25
2023-05-23T08:36:27.863Z,22.34
2023-05-23T08:37:27.861Z,22.42
2023-05-23T08:38:27.900Z,22.48
2023-05-23T08:39:27.859Z,22.37
2023-05-23T08:40:27.852Z,22.33
2023-05-23T08:41:27.881Z,22.41
2023-05-23T08:42:27.904Z,22.51
2023-05-23T08:43:27.920Z,22.64
2023-05-23T08:44:27.834Z,22.82
2023-05-23T08:45:27.973Z,23.05
2023-05-23T08:46:27.903Z,23.16
2023-05-23T08:47:27.932Z,23.30
2023-05-23T08:48:27.895Z,23.45
2023-05-23T08:49:27.876Z,23.58
2023-05-23T08:50:27.933Z,23.70
2023-05-23T08:51:27.874Z,23.82
2023-05-23T08:52:27.899Z,23.93
2023-05-23T08:53:27.927Z,24.03
2023-05-23T08:54:27.910Z,24.12
2023-05-23T08:56:27.945Z,24.14
2023-05-23T08:57:27.877Z,24.22
2023-05-23T08:58:27.924Z,24.37
2023-05-23T08:59:27.925Z,24.48
2023-05-23T09:00:27.909Z,24.65
2023-05-23T09:01:28.073Z,24.82
2023-05-23T09:07:27.952Z,24.97
2023-05-23T09:08:27.937Z,25.07
2023-05-23T09:09:27.997Z,25.17
2023-05-23T09:10:27.941Z,25.25
2023-05-23T09:11:27.951Z,25.27
2023-05-23T09:12:28.026Z,25.32
2023-05-23T09:13:27.961Z,25.36
2023-05-23T09:14:27.966Z,25.43
2023-05-23T09:15:27.935Z,25.49
2023-05-23T09:16:28.003Z,25.58
2023-05-23T09:17:28.013Z,25.57
2023-05-23T09:18:28.024Z,25.60
2023-05-23T09:19:28.039Z,25.67
2023-05-23T09:21:27.968Z,25.73
2023-05-23T09:22:27.974Z,25.87
2023-05-23T09:23:28.016Z,26.09
2023-05-23T09:24:27.994Z,26.31
2023-05-23T09:25:27.981Z,26.55
2023-05-23T09:26:27.998Z,26.74
2023-05-23T09:27:27.993Z,26.86
2023-05-23T09:28:27.963Z,26.79
2023-05-23T09:29:27.977Z,26.65
2023-05-23T09:30:28.023Z,26.47
2023-05-23T09:31:28.015Z,26.50
2023-05-23T09:32:28.108Z,26.56
2023-05-23T09:33:28.042Z,26.64
2023-05-23T09:34:28.014Z,26.71
2023-05-23T09:35:30.418Z,26.73
2023-05-23T09:36:28.059Z,26.69
2023-05-23T09:37:28.077Z,26.50
2023-05-23T09:38:28.054Z,26.28
2023-05-23T09:39:28.005Z,26.29
2023-05-23T09:40:28.050Z,26.35
2023-05-23T09:41:28.053Z,26.37
2023-05-23T09:42:28.023Z,26.43
2023-05-23T09:43:28.055Z,26.30
2023-05-23T09:44:28.072Z,26.08
2023-05-23T09:45:28.069Z,25.91
2023-05-23T09:46:28.086Z,25.66
2023-05-23T09:47:28.078Z,25.53
2023-05-23T09:48:28.080Z,25.60
2023-05-23T09:49:28.086Z,25.86
2023-05-23T09:50:28.069Z,26.03
2023-05-23T09:51:28.084Z,26.07
2023-05-23T09:52:28.087Z,26.24
2023-05-23T09:53:28.059Z,26.40
2023-05-23T09:54:28.057Z,26.60
2023-05-23T09:55:28.068Z,26.62
2023-05-23T09:56:28.101Z,26.70
2023-05-23T09:57:28.086Z,26.77
2023-05-23T09:58:28.101Z,26.82
2023-05-23T09:59:28.088Z,26.81
2023-05-23T10:00:28.090Z,26.79
2023-05-23T10:01:28.102Z,26.99
2023-05-23T10:02:28.055Z,27.24
2023-05-23T10:03:28.117Z,27.42
2023-05-23T10:04:28.150Z,27.50
2023-05-23T10:05:28.091Z,27.19
2023-05-23T10:06:28.099Z,26.89
2023-05-23T10:07:28.089Z,26.59
2023-05-23T10:08:28.080Z,26.28
2023-05-23T10:09:28.154Z,26.24
2023-05-23T10:10:28.111Z,26.41
2023-05-23T10:11:28.119Z,26.60
2023-05-23T10:12:30.603Z,26.94
2023-05-23T10:13:28.109Z,27.23
2023-05-23T10:14:28.104Z,27.37
2023-05-23T10:15:28.160Z,27.55
2023-05-23T10:16:28.216Z,27.61
2023-05-23T10:17:28.143Z,27.62
2023-05-23T10:18:28.111Z,27.39
2023-05-23T10:19:28.174Z,27.32
2023-05-23T10:20:28.141Z,27.09
2023-05-23T10:21:28.155Z,27.08
2023-05-23T10:22:28.168Z,27.18
2023-05-23T10:23:28.111Z,27.37
2023-05-23T10:24:28.140Z,27.64
2023-05-23T10:25:28.137Z,27.74
2023-05-23T10:26:28.149Z,27.95
2023-05-23T10:27:28.155Z,28.15
2023-05-23T10:28:28.189Z,28.30
2023-05-23T10:29:28.157Z,28.49
2023-05-23T10:30:28.166Z,28.68
2023-05-23T10:31:28.208Z,28.85
2023-05-23T10:32:28.218Z,29.00
2023-05-23T10:33:29.768Z,29.09
2023-05-23T10:34:28.207Z,29.10
2023-05-23T10:35:28.211Z,29.08
2023-05-23T10:36:28.156Z,29.02
2023-05-23T10:37:28.221Z,28.90
2023-05-23T10:38:28.233Z,28.68
2023-05-23T10:39:28.209Z,28.39
2023-05-23T10:40:28.220Z,28.24
2023-05-23T10:41:28.152Z,28.10
2023-05-23T10:42:28.235Z,28.18
2023-05-23T10:43:28.166Z,28.25
2023-05-23T10:44:28.168Z,28.33
2023-05-23T10:45:28.246Z,28.34
2023-05-23T10:46:28.323Z,28.30
2023-05-23T10:47:28.370Z,28.18
2023-05-23T10:48:28.212Z,27.80
2023-05-23T10:49:30.955Z,27.54
2023-05-23T10:50:28.218Z,27.41
2023-05-23T10:51:28.194Z,27.50
2023-05-23T10:52:28.212Z,27.66
2023-05-23T10:53:28.212Z,27.80
2023-05-23T10:54:28.233Z,27.73
2023-05-23T10:55:28.234Z,27.67
2023-05-23T10:56:28.251Z,27.71
2023-05-23T10:57:28.217Z,27.69
2023-05-23T10:58:28.258Z,27.78
2023-05-23T10:59:28.226Z,27.93
2023-05-23T11:00:28.248Z,27.77
2023-05-23T11:01:28.294Z,27.67
2023-05-23T11:02:28.329Z,27.64
2023-05-23T11:03:28.324Z,27.55
2023-05-23T11:04:28.320Z,27.47
2023-05-23T11:05:28.320Z,27.41
2023-05-23T11:06:28.299Z,27.39
2023-05-23T11:07:28.226Z,27.49
2023-05-23T11:08:39.316Z,27.50
2023-05-23T11:09:28.292Z,27.56
2023-05-23T11:10:28.293Z,27.44
2023-05-23T11:11:28.266Z,27.30
2023-05-23T11:12:28.244Z,27.33
2023-05-23T11:13:28.301Z,27.26
2023-05-23T11:14:28.312Z,27.36
2023-05-23T11:15:28.255Z,27.62
2023-05-23T11:16:28.305Z,27.76
2023-05-23T11:17:28.337Z,27.84
2023-05-23T11:18:28.305Z,27.95
2023-05-23T11:19:28.812Z,28.05
2023-05-23T11:20:28.256Z,28.01
2023-05-23T11:21:28.325Z,28.04
2023-05-23T11:22:28.298Z,27.94
2023-05-23T11:23:28.284Z,27.85
2023-05-23T11:24:28.316Z,27.59
2023-05-23T11:26:31.180Z,27.47
2023-05-23T11:27:28.330Z,27.39
2023-05-23T11:28:28.261Z,27.45
2023-05-23T11:29:28.301Z,27.53
2023-05-23T11:30:28.346Z,27.62
2023-05-23T11:31:28.381Z,27.71
2023-05-23T11:32:28.451Z,27.78
2023-05-23T11:33:28.324Z,27.79
2023-05-23T11:34:28.354Z,27.80
2023-05-23T11:35:28.382Z,27.84
2023-05-23T11:36:28.326Z,27.87
2023-05-23T11:37:28.333Z,27.88
2023-05-23T11:38:28.298Z,27.89
2023-05-23T11:42:28.360Z,27.91
2023-05-23T11:43:28.384Z,27.93
2023-05-23T11:44:28.388Z,27.90
2023-05-23T11:46:28.392Z,27.91
2023-05-23T11:47:28.431Z,27.87
2023-05-23T11:48:28.370Z,27.83
2023-05-23T11:49:28.370Z,27.74
2023-05-23T11:50:28.408Z,27.66
2023-05-23T11:51:28.424Z,27.61
2023-05-23T11:52:28.390Z,27.56
2023-05-23T11:53:28.417Z,27.46
2023-05-23T11:54:28.368Z,27.11
2023-05-23T11:55:28.391Z,26.74
2023-05-23T11:56:28.406Z,26.57
2023-05-23T11:57:28.426Z,26.46
2023-05-23T11:58:28.419Z,26.43
2023-05-23T11:59:28.370Z,26.44
2023-05-23T12:00:28.421Z,26.45
2023-05-23T12:01:28.423Z,26.47
2023-05-23T12:02:28.461Z,26.50
2023-05-23T12:03:31.737Z,26.52
2023-05-23T12:04:28.445Z,26.54
2023-05-23T12:05:28.449Z,26.53
2023-05-23T12:09:28.447Z,26.48
2023-05-23T12:10:28.478Z,26.39
2023-05-23T12:11:28.425Z,26.33
2023-05-23T12:12:30.088Z,26.26
2023-05-23T12:13:28.433Z,26.17
2023-05-23T12:14:28.472Z,26.07
2023-05-23T12:15:28.441Z,26.00
2023-05-23T12:16:28.480Z,25.93
2023-05-23T12:17:28.487Z,25.87
2023-05-23T12:18:28.446Z,25.82
2023-05-23T12:19:28.509Z,25.78
2023-05-23T12:20:28.418Z,25.76
2023-05-23T12:21:28.483Z,25.73
2023-05-23T12:22:28.473Z,25.68
2023-05-23T12:23:28.471Z,25.64
2023-05-23T12:24:28.459Z,25.58
2023-05-23T12:25:28.450Z,25.53
2023-05-23T12:26:28.499Z,25.47
2023-05-23T12:27:28.489Z,25.39
2023-05-23T12:28:28.497Z,25.33
2023-05-23T12:29:28.477Z,25.26
2023-05-23T12:30:28.445Z,25.19
2023-05-23T12:31:28.578Z,25.14
2023-05-23T12:32:28.546Z,25.11
2023-05-23T12:33:28.457Z,25.03
2023-05-23T12:34:28.520Z,24.95
2023-05-23T12:35:28.526Z,24.86
2023-05-23T12:36:29.857Z,24.81
2023-05-23T12:37:28.529Z,24.80
2023-05-23T12:38:28.463Z,24.79
2023-05-23T12:39:28.521Z,24.80
2023-05-23T12:41:28.515Z,24.79
2023-05-23T12:42:30.652Z,24.78
2023-05-23T12:43:28.506Z,24.80
2023-05-23T12:44:28.543Z,24.83
2023-05-23T12:45:28.562Z,24.85
2023-05-23T12:46:28.606Z,24.84
2023-05-23T12:47:28.597Z,24.83
2023-05-23T12:48:28.572Z,24.85
2023-05-23T12:49:28.582Z,24.86
2023-05-23T12:50:28.619Z,24.88
2023-05-23T12:51:28.501Z,24.92
2023-05-23T12:53:28.583Z,24.93
2023-05-23T12:54:28.556Z,24.95
2023-05-23T12:55:28.559Z,24.96
2023-05-23T12:56:28.579Z,24.98
2023-05-23T12:57:28.583Z,25.02
2023-05-23T12:58:30.960Z,25.03
2023-05-23T12:59:28.548Z,24.98
2023-05-23T13:00:28.587Z,24.97
2023-05-23T13:01:28.676Z,24.96
2023-05-23T13:02:28.633Z,24.97
2023-05-23T13:03:28.608Z,24.98
2023-05-23T13:04:30.933Z,24.93
2023-05-23T13:05:28.566Z,24.84
2023-05-23T13:06:28.577Z,24.82
2023-05-23T13:07:28.562Z,24.77
2023-05-23T13:09:28.556Z,24.71
2023-05-23T13:10:30.956Z,24.58
2023-05-23T13:11:28.620Z,24.54
2023-05-23T13:12:28.586Z,24.51
2023-05-23T13:13:28.625Z,24.43
2023-05-23T13:14:28.604Z,24.38
2023-05-23T13:15:28.616Z,24.35
2023-05-23T13:17:31.919Z,24.30
2023-05-23T13:18:28.639Z,24.28
2023-05-23T13:19:28.669Z,24.14
2023-05-23T13:20:28.640Z,23.88
2023-05-23T13:21:28.603Z,23.53
2023-05-23T13:22:28.620Z,23.44
2023-05-23T13:23:28.652Z,23.42
2023-05-23T13:25:28.624Z,23.40
2023-05-23T13:26:28.651Z,23.33
2023-05-23T13:27:28.638Z,23.36
2023-05-23T13:28:28.627Z,23.22
2023-05-23T13:29:28.633Z,22.88
2023-05-23T13:30:28.647Z,22.70
2023-05-23T13:31:28.735Z,22.56
2023-05-23T13:32:28.664Z,22.44
2023-05-23T13:33:28.653Z,22.39
2023-05-23T13:34:28.710Z,22.37
2023-05-23T13:35:28.618Z,22.31
2023-05-23T13:36:28.677Z,22.16
2023-05-23T13:37:28.693Z,22.18
2023-05-23T13:38:28.663Z,22.25
2023-05-23T13:39:28.678Z,22.22
2023-05-23T13:40:28.644Z,22.24
2023-05-23T13:41:28.692Z,22.38
2023-05-23T13:42:28.679Z,22.51
2023-05-23T13:43:28.684Z,22.65
2023-05-23T13:44:28.704Z,22.73
2023-05-23T13:45:28.674Z,22.81
2023-05-23T13:46:28.733Z,22.70
2023-05-23T13:47:28.726Z,22.56
2023-05-23T13:48:28.683Z,22.60
2023-05-23T13:49:28.716Z,22.55
2023-05-23T13:50:28.748Z,22.52
2023-05-23T13:51:28.734Z,22.59
2023-05-23T13:52:28.716Z,22.61
2023-05-23T13:53:28.665Z,22.51
2023-05-23T13:54:32.118Z,22.54
2023-05-23T13:55:28.756Z,22.64
2023-05-23T13:56:28.743Z,22.78
2023-05-23T13:57:28.741Z,22.93
2023-05-23T13:58:30.155Z,23.04
2023-05-23T13:59:28.721Z,23.08
2023-05-23T14:01:28.735Z,23.20
2023-05-23T14:02:28.772Z,23.23
2023-05-23T14:03:28.724Z,23.31
2023-05-23T14:04:28.731Z,23.26
2023-05-23T14:05:28.804Z,23.28
2023-05-23T14:06:28.714Z,23.34
2023-05-23T14:07:28.746Z,23.25
2023-05-23T14:08:28.788Z,23.14
2023-05-23T14:09:28.791Z,23.18
2023-05-23T14:10:28.740Z,23.31
2023-05-23T14:11:28.761Z,23.40
2023-05-23T14:12:28.769Z,23.45
2023-05-23T14:13:28.748Z,23.53
2023-05-23T14:14:28.719Z,23.64
2023-05-23T14:15:28.814Z,23.71